Time;durP1;ratioP1;P1;durP2;ratioP2;P2;SDS_P1;SDS_P2;PMS_P1;PMS_P2;Temp;Humidity;BMP_temperature;BMP_pressure;BME280_temperature;BME280_humidity;BME280_pressure;Samples;Min_cycle;Max_cycle;Signal;HPM_P1;HPM_P2
2021/12/13 00:00:44;;;;;;;60.93;32.00;;;;;;;;;;5041190;28;20218;-71
2021/12/13 00:03:18;;;;;;;61.27;33.90;;;;;;;;;;5042660;28;20217;-71
2021/12/13 00:05:48;;;;;;;62.93;34.23;;;;;;;;;;5040926;28;20201;-71
2021/12/13 00:08:19;;;;;;;60.67;32.63;;;;;;;;;;5040697;28;20267;-71
2021/12/13 00:10:50;;;;;;;57.20;31.90;;;;;;;;;;5041084;28;20241;-71
2021/12/13 00:13:21;;;;;;;62.73;33.43;;;;;;;;;;5042635;28;20218;-71
2021/12/13 00:15:52;;;;;;;68.07;34.33;;;;;;;;;;5040356;28;20483;-71
2021/12/13 00:18:24;;;;;;;62.10;34.27;;;;;;;;;;5040720;28;21071;-71
2021/12/13 00:20:57;;;;;;;73.77;36.07;;;;;;;;;;5041631;28;20280;-71
2021/12/13 00:23:27;;;;;;;73.27;34.97;;;;;;;;;;5041820;28;20209;-72
2021/12/13 00:25:58;;;;;;;68.30;32.40;;;;;;;;;;5040180;28;20911;-71
2021/12/13 00:28:27;;;;;;;62.17;32.80;;;;;;;;;;5039907;28;20302;-72
2021/12/13 00:31:15;;;;;;;64.10;32.20;;;;;;;;;;5041795;28;20236;-71
2021/12/13 00:33:53;;;;;;;54.50;30.23;;;;;;;;;;5040927;28;20713;-71
2021/12/13 00:36:28;;;;;;;55.20;32.03;;;;;;;;;;5040020;28;20808;-71
2021/12/13 00:39:00;;;;;;;48.57;29.03;;;;;;;;;;5040099;28;20912;-71
2021/12/13 00:41:30;;;;;;;51.43;29.10;;;;;;;;;;5041681;28;20231;-71
2021/12/13 00:44:02;;;;;;;48.80;29.57;;;;;;;;;;5040589;28;20282;-72
2021/12/13 00:46:32;;;;;;;47.80;28.30;;;;;;;;;;5040155;28;20229;-71
2021/12/13 00:49:01;;;;;;;47.53;29.30;;;;;;;;;;5040485;28;20233;-71
2021/12/13 00:51:30;;;;;;;49.90;29.40;;;;;;;;;;5041645;28;20212;-71
2021/12/13 00:53:58;;;;;;;51.33;30.33;;;;;;;;;;5039673;28;20213;-73
2021/12/13 00:57:07;;;;;;;43.70;29.17;;;;;;;;;;5039023;28;20807;-73
2021/12/13 00:59:37;;;;;;;48.87;30.43;;;;;;;;;;5030663;28;20577;-71
2021/12/13 01:02:07;;;;;;;47.30;29.23;;;;;;;;;;5040878;28;20230;-71
2021/12/13 01:04:58;;;;;;;45.47;26.83;;;;;;;;;;5039257;28;20209;-71
2021/12/13 01:08:01;;;;;;;37.27;27.03;;;;;;;;;;5038442;28;20260;-71
2021/12/13 01:11:05;;;;;;;43.67;27.83;;;;;;;;;;5038117;28;20229;-70
2021/12/13 01:13:37;;;;;;;36.87;26.27;;;;;;;;;;5038620;28;20212;-71
2021/12/13 01:16:16;;;;;;;37.73;26.13;;;;;;;;;;5040331;28;20222;-71
2021/12/13 01:19:12;;;;;;;35.90;25.17;;;;;;;;;;5038471;28;20213;-71
2021/12/13 01:21:54;;;;;;;36.60;24.57;;;;;;;;;;5039076;28;20209;-70
2021/12/13 01:24:42;;;;;;;37.73;23.23;;;;;;;;;;5039123;28;20224;-71
2021/12/13 01:27:08;;;;;;;29.43;22.97;;;;;;;;;;5041266;28;20221;-73
2021/12/13 01:29:36;;;;;;;27.27;20.17;;;;;;;;;;5039898;28;20205;-73
2021/12/13 01:32:06;;;;;;;25.40;19.47;;;;;;;;;;5039287;28;20267;-73
2021/12/13 01:34:37;;;;;;;23.33;18.40;;;;;;;;;;5039392;28;20243;-70
2021/12/13 01:37:09;;;;;;;26.73;18.70;;;;;;;;;;5040481;28;20233;-71
2021/12/13 01:39:38;;;;;;;25.37;18.40;;;;;;;;;;5039026;28;20340;-70
2021/12/13 01:42:10;;;;;;;27.20;17.60;;;;;;;;;;5038713;28;21094;-71
2021/12/13 01:44:42;;;;;;;23.67;16.27;;;;;;;;;;5040796;28;20218;-70
2021/12/13 01:47:15;;;;;;;35.77;15.63;;;;;;;;;;5040502;28;20236;-70
2021/12/13 01:49:47;;;;;;;21.07;14.93;;;;;;;;;;5039475;28;20699;-71
2021/12/13 01:52:16;;;;;;;23.83;15.30;;;;;;;;;;5040301;28;20214;-70
2021/12/13 01:54:43;;;;;;;23.93;15.53;;;;;;;;;;5040538;28;20230;-71
2021/12/13 01:57:25;;;;;;;21.37;15.90;;;;;;;;;;5038437;28;20229;-70
2021/12/13 02:00:07;;;;;;;20.73;13.57;;;;;;;;;;5038810;28;20220;-70
2021/12/13 02:02:37;;;;;;;22.33;13.77;;;;;;;;;;5039683;28;20883;-70
2021/12/13 02:05:09;;;;;;;22.67;14.07;;;;;;;;;;5040571;28;21095;-71
2021/12/13 02:07:41;;;;;;;16.03;10.97;;;;;;;;;;5038139;28;20243;-70
2021/12/13 02:10:14;;;;;;;16.93;11.20;;;;;;;;;;5038812;28;20303;-70
2021/12/13 02:12:43;;;;;;;16.73;11.03;;;;;;;;;;5040221;28;20258;-70
2021/12/13 02:17:57;;;;;;;10.20;7.40;;;;;;;;;;5038309;28;20240;-71
2021/12/13 02:20:30;;;;;;;12.90;7.70;;;;;;;;;;5039069;28;20222;-71
2021/12/13 02:22:59;;;;;;;16.00;8.50;;;;;;;;;;5040027;28;20275;-71
2021/12/13 02:25:28;;;;;;;11.03;7.30;;;;;;;;;;5038570;28;20674;-71
2021/12/13 02:28:01;;;;;;;14.77;7.10;;;;;;;;;;5037714;28;20213;-71
2021/12/13 02:30:35;;;;;;;12.40;6.67;;;;;;;;;;5040112;28;20225;-71
2021/12/13 02:33:04;;;;;;;14.57;7.77;;;;;;;;;;5040479;28;20213;-71
2021/12/13 02:35:33;;;;;;;11.80;6.50;;;;;;;;;;5039442;28;20221;-71
2021/12/13 02:38:03;;;;;;;10.17;7.23;;;;;;;;;;5038849;28;20238;-71
2021/12/13 02:40:30;;;;;;;11.50;7.27;;;;;;;;;;5040304;28;20298;-71
2021/12/13 02:42:57;;;;;;;13.17;6.93;;;;;;;;;;5038760;28;20264;-71
2021/12/13 02:45:27;;;;;;;11.23;6.20;;;;;;;;;;5040376;28;20547;-71
2021/12/13 02:48:01;;;;;;;11.07;6.20;;;;;;;;;;5043747;28;20585;-71
2021/12/13 02:50:36;;;;;;;9.00;6.10;;;;;;;;;;5043873;28;20602;-71
2021/12/13 02:53:05;;;;;;;9.50;6.70;;;;;;;;;;5041669;28;20757;-71
2021/12/13 02:55:33;;;;;;;9.77;6.57;;;;;;;;;;5042893;28;20696;-71
2021/12/13 02:58:03;;;;;;;12.27;7.47;;;;;;;;;;5044049;28;20645;-71
2021/12/13 03:00:37;;;;;;;13.07;7.50;;;;;;;;;;5042701;28;20251;-71
2021/12/13 03:03:08;;;;;;;11.23;6.97;;;;;;;;;;5042573;28;20217;-71
2021/12/13 03:05:38;;;;;;;10.23;7.13;;;;;;;;;;5043186;28;20213;-71
2021/12/13 03:08:09;;;;;;;10.97;7.60;;;;;;;;;;5043977;28;20469;-71
2021/12/13 03:10:40;;;;;;;14.23;8.87;;;;;;;;;;5040767;28;20971;-71
2021/12/13 03:13:08;;;;;;;10.30;8.73;;;;;;;;;;5041975;28;20231;-71
2021/12/13 03:15:36;;;;;;;15.20;9.13;;;;;;;;;;5043719;28;20267;-71
2021/12/13 03:18:10;;;;;;;16.60;9.43;;;;;;;;;;5042228;28;20230;-71
2021/12/13 03:21:02;;;;;;;12.67;9.57;;;;;;;;;;5041341;28;20213;-73
2021/12/13 03:23:46;;;;;;;15.43;9.97;;;;;;;;;;5042044;28;20557;-71
2021/12/13 03:26:44;;;;;;;12.17;8.83;;;;;;;;;;5042571;28;20904;-71
2021/12/13 03:29:16;;;;;;;15.87;10.20;;;;;;;;;;5043796;28;20764;-71
2021/12/13 03:31:52;;;;;;;13.93;9.53;;;;;;;;;;5042312;28;20297;-71
2021/12/13 03:34:23;;;;;;;14.63;8.87;;;;;;;;;;5041127;28;20258;-71
2021/12/13 03:36:57;;;;;;;11.60;8.67;;;;;;;;;;5042160;28;20232;-71
2021/12/13 03:39:29;;;;;;;12.53;8.63;;;;;;;;;;5041978;28;20295;-71
2021/12/13 03:41:57;;;;;;;9.57;7.60;;;;;;;;;;5041396;28;20281;-71
2021/12/13 03:44:28;;;;;;;10.67;7.17;;;;;;;;;;5042225;28;20551;-71
2021/12/13 03:46:58;;;;;;;11.97;6.77;;;;;;;;;;5043206;28;20684;-71
2021/12/13 03:49:27;;;;;;;10.83;7.67;;;;;;;;;;5041141;28;20400;-71
2021/12/13 03:51:58;;;;;;;9.23;6.90;;;;;;;;;;5040860;28;20237;-72
2021/12/13 03:54:28;;;;;;;10.00;6.00;;;;;;;;;;5041762;28;20251;-72
2021/12/13 03:56:56;;;;;;;8.63;5.90;;;;;;;;;;5042478;28;20213;-72
2021/12/13 03:59:27;;;;;;;9.73;5.80;;;;;;;;;;5040083;28;20212;-73
2021/12/13 04:01:56;;;;;;;10.77;6.23;;;;;;;;;;5041083;28;20236;-71
2021/12/13 04:04:26;;;;;;;8.47;5.53;;;;;;;;;;5042514;28;20783;-71
2021/12/13 04:06:57;;;;;;;8.17;5.97;;;;;;;;;;5040740;28;20628;-71
2021/12/13 04:09:27;;;;;;;8.30;5.60;;;;;;;;;;5040987;28;20220;-71
2021/12/13 04:11:56;;;;;;;6.43;5.13;;;;;;;;;;5041515;28;20214;-73
2021/12/13 04:14:28;;;;;;;10.70;5.97;;;;;;;;;;5042519;28;20737;-72
2021/12/13 04:17:06;;;;;;;9.63;5.83;;;;;;;;;;5040366;28;20907;-71
2021/12/13 04:19:46;;;;;;;8.20;5.80;;;;;;;;;;5040160;28;20213;-72
2021/12/13 04:22:14;;;;;;;9.70;6.10;;;;;;;;;;5041496;28;20276;-73
2021/12/13 04:24:45;;;;;;;10.67;6.80;;;;;;;;;;5040751;28;21133;-72
2021/12/13 04:27:18;;;;;;;9.57;6.50;;;;;;;;;;5039918;28;20302;-71
2021/12/13 04:29:45;;;;;;;7.57;5.97;;;;;;;;;;5039893;28;20217;-73
2021/12/13 04:32:16;;;;;;;8.47;6.33;;;;;;;;;;5042018;28;20304;-72
2021/12/13 04:34:44;;;;;;;11.37;7.60;;;;;;;;;;5039385;28;20267;-72
2021/12/13 04:37:12;;;;;;;10.17;7.80;;;;;;;;;;5040520;28;20283;-72
2021/12/13 04:39:41;;;;;;;8.97;7.70;;;;;;;;;;5040920;28;20306;-72
2021/12/13 04:42:13;;;;;;;13.37;8.87;;;;;;;;;;5040895;28;20385;-72
2021/12/13 04:44:46;;;;;;;9.53;8.43;;;;;;;;;;5039643;28;21043;-72
2021/12/13 04:47:15;;;;;;;11.50;9.20;;;;;;;;;;5040867;28;20233;-72
2021/12/13 04:49:46;;;;;;;11.23;9.07;;;;;;;;;;5041208;28;20230;-72
2021/12/13 04:52:18;;;;;;;15.80;10.47;;;;;;;;;;5039942;28;20217;-72
2021/12/13 04:54:47;;;;;;;12.47;10.73;;;;;;;;;;5039235;28;20283;-72
2021/12/13 04:57:16;;;;;;;11.67;9.77;;;;;;;;;;5041111;28;20714;-72
2021/12/13 04:59:48;;;;;;;14.57;10.63;;;;;;;;;;5040483;28;20208;-72
2021/12/13 05:02:15;;;;;;;15.60;10.60;;;;;;;;;;5039076;28;20234;-72
2021/12/13 05:04:41;;;;;;;13.70;11.50;;;;;;;;;;5039886;28;20212;-72
2021/12/13 05:07:08;;;;;;;13.60;11.50;;;;;;;;;;5041498;28;20212;-73
2021/12/13 05:09:36;;;;;;;12.60;10.43;;;;;;;;;;5039034;28;20762;-72
2021/12/13 05:12:09;;;;;;;18.27;12.43;;;;;;;;;;5039816;28;20820;-72
2021/12/13 05:14:40;;;;;;;14.57;12.03;;;;;;;;;;5041684;28;20551;-72
2021/12/13 05:17:10;;;;;;;18.33;13.33;;;;;;;;;;5040804;28;20653;-72
2021/12/13 05:19:40;;;;;;;15.57;11.57;;;;;;;;;;5039169;28;20268;-72
2021/12/13 05:22:09;;;;;;;15.90;12.63;;;;;;;;;;5040162;28;20299;-72
2021/12/13 05:24:45;;;;;;;16.40;13.23;;;;;;;;;;5041116;28;20229;-72
2021/12/13 05:27:14;;;;;;;16.57;12.87;;;;;;;;;;5039974;28;20215;-72
2021/12/13 05:29:44;;;;;;;16.97;13.53;;;;;;;;;;5038982;28;20283;-72
2021/12/13 05:32:14;;;;;;;19.50;17.50;;;;;;;;;;5039593;28;20436;-77
2021/12/13 05:34:46;;;;;;;18.17;15.37;;;;;;;;;;5040326;28;20528;-75
2021/12/13 05:37:13;;;;;;;18.50;13.60;;;;;;;;;;5039256;28;20733;-75
2021/12/13 05:39:55;;;;;;;19.00;14.77;;;;;;;;;;5040694;28;20403;-75
2021/12/13 05:42:22;;;;;;;16.73;14.60;;;;;;;;;;5041742;28;20216;-76
2021/12/13 05:44:50;;;;;;;18.40;15.97;;;;;;;;;;5040747;28;20606;-75
2021/12/13 05:47:22;;;;;;;17.80;15.27;;;;;;;;;;5039290;28;20227;-77
2021/12/13 05:49:51;;;;;;;21.77;17.07;;;;;;;;;;5040799;28;20243;-77
2021/12/13 05:52:20;;;;;;;24.37;17.27;;;;;;;;;;5041261;28;20701;-76
2021/12/13 05:54:51;;;;;;;19.90;15.90;;;;;;;;;;5038829;28;20236;-75
2021/12/13 05:57:22;;;;;;;17.60;15.13;;;;;;;;;;5039315;28;20212;-75
2021/12/13 06:00:00;;;;;;;19.57;16.40;;;;;;;;;;5040408;28;20205;-76
2021/12/13 06:02:42;;;;;;;21.97;17.50;;;;;;;;;;5039387;28;20248;-75
2021/12/13 06:05:15;;;;;;;24.43;18.40;;;;;;;;;;5039736;28;20208;-76
2021/12/13 06:07:42;;;;;;;22.07;19.07;;;;;;;;;;5039740;28;20297;-76
2021/12/13 06:10:11;;;;;;;20.43;18.23;;;;;;;;;;5040134;28;20230;-76
2021/12/13 06:12:43;;;;;;;21.90;18.83;;;;;;;;;;5039425;28;20262;-76
2021/12/13 06:15:29;;;;;;;19.70;17.60;;;;;;;;;;5039126;28;20213;-76
2021/12/13 06:18:11;;;;;;;22.00;18.03;;;;;;;;;;5040326;28;20233;-75
2021/12/13 06:20:41;;;;;;;22.40;20.00;;;;;;;;;;5043302;28;20225;-75
2021/12/13 06:23:10;;;;;;;19.30;15.67;;;;;;;;;;5042956;28;20691;-76
2021/12/13 06:25:37;;;;;;;21.17;18.73;;;;;;;;;;5041537;28;20777;-76
2021/12/13 06:28:06;;;;;;;22.40;19.90;;;;;;;;;;5043701;28;20209;-75
2021/12/13 06:30:38;;;;;;;20.57;17.13;;;;;;;;;;5043543;28;20212;-75
2021/12/13 06:33:07;;;;;;;19.77;17.67;;;;;;;;;;5042633;28;20219;-75
2021/12/13 06:35:45;;;;;;;18.30;16.23;;;;;;;;;;5043945;28;20582;-75
2021/12/13 06:38:39;;;;;;;22.57;18.60;;;;;;;;;;5044465;28;20224;-75
2021/12/13 06:41:16;;;;;;;21.00;17.73;;;;;;;;;;5043535;28;20221;-76
2021/12/13 06:43:46;;;;;;;19.07;17.03;;;;;;;;;;5042301;28;20269;-76
2021/12/13 06:46:32;;;;;;;18.87;16.87;;;;;;;;;;5043201;28;20712;-75
2021/12/13 06:49:07;;;;;;;18.53;15.83;;;;;;;;;;5044203;28;20233;-76
2021/12/13 06:51:44;;;;;;;18.17;16.00;;;;;;;;;;5044186;28;20264;-76
2021/12/13 06:54:13;;;;;;;17.67;15.77;;;;;;;;;;5043147;28;20794;-75
2021/12/13 06:56:42;;;;;;;17.40;15.50;;;;;;;;;;5043005;28;20231;-75
2021/12/13 06:59:11;;;;;;;17.97;16.07;;;;;;;;;;5044195;28;20290;-75
2021/12/13 07:01:40;;;;;;;19.03;16.07;;;;;;;;;;5041103;28;20236;-75
2021/12/13 07:04:10;;;;;;;18.20;15.83;;;;;;;;;;5042241;28;20240;-76
2021/12/13 07:06:37;;;;;;;18.23;14.87;;;;;;;;;;5042313;28;20212;-75
2021/12/13 07:09:09;;;;;;;18.90;15.47;;;;;;;;;;5040079;28;20853;-75
2021/12/13 07:11:44;;;;;;;15.07;13.47;;;;;;;;;;5041887;28;20230;-75
2021/12/13 07:14:14;;;;;;;16.03;14.33;;;;;;;;;;5040776;28;20395;-75
2021/12/13 07:16:46;;;;;;;16.37;14.67;;;;;;;;;;5039164;28;20726;-75
2021/12/13 07:19:19;;;;;;;16.07;14.37;;;;;;;;;;5041676;28;20249;-75
2021/12/13 07:21:54;;;;;;;16.43;14.50;;;;;;;;;;5040753;28;20414;-75
2021/12/13 07:24:33;;;;;;;16.47;14.43;;;;;;;;;;5039149;28;20605;-75
2021/12/13 07:27:04;;;;;;;15.93;14.07;;;;;;;;;;5041274;28;20208;-75
2021/12/13 07:29:41;;;;;;;17.37;15.57;;;;;;;;;;5038814;28;20851;-75
2021/12/13 07:32:13;;;;;;;17.00;13.97;;;;;;;;;;5038353;28;20233;-75
2021/12/13 07:34:53;;;;;;;17.30;14.17;;;;;;;;;;5041273;28;20617;-75
2021/12/13 07:37:34;;;;;;;15.70;14.07;;;;;;;;;;5037841;28;20260;-75
2021/12/13 07:40:16;;;;;;;15.93;14.33;;;;;;;;;;5039534;28;20717;-75
2021/12/13 07:42:51;;;;;;;19.33;16.37;;;;;;;;;;5039990;28;20212;-75
2021/12/13 07:45:24;;;;;;;17.30;14.47;;;;;;;;;;5038010;28;20216;-75
2021/12/13 07:47:53;;;;;;;16.30;14.60;;;;;;;;;;5040312;28;20305;-75
2021/12/13 07:50:22;;;;;;;16.93;14.70;;;;;;;;;;5040437;28;20240;-75
2021/12/13 07:52:55;;;;;;;14.53;13.00;;;;;;;;;;5039131;28;20225;-75
2021/12/13 07:55:25;;;;;;;18.73;13.87;;;;;;;;;;5040948;28;20294;-75
2021/12/13 07:57:53;;;;;;;15.00;13.40;;;;;;;;;;5039186;28;20232;-78
2021/12/13 08:00:23;;;;;;;16.50;13.87;;;;;;;;;;5038807;28;20212;-77
2021/12/13 08:02:56;;;;;;;18.77;15.10;;;;;;;;;;5040324;28;20358;-77
2021/12/13 08:05:25;;;;;;;17.50;13.63;;;;;;;;;;5038050;28;20217;-77
2021/12/13 08:07:54;;;;;;;16.90;15.10;;;;;;;;;;5040082;28;20964;-77
2021/12/13 08:10:23;;;;;;;15.30;13.70;;;;;;;;;;5037589;28;20285;-78
2021/12/13 08:12:53;;;;;;;17.20;14.67;;;;;;;;;;5039677;28;20278;-75
2021/12/13 08:15:24;;;;;;;16.27;14.57;;;;;;;;;;5040841;28;20671;-75
2021/12/13 08:17:53;;;;;;;18.70;15.13;;;;;;;;;;5037894;28;20234;-76
2021/12/13 08:20:24;;;;;;;17.00;14.30;;;;;;;;;;5038722;28;20787;-76
2021/12/13 08:22:51;;;;;;;18.63;14.97;;;;;;;;;;5039375;28;20805;-77
2021/12/13 08:25:21;;;;;;;17.70;14.07;;;;;;;;;;5036854;28;20233;-77
2021/12/13 08:27:53;;;;;;;21.03;16.20;;;;;;;;;;5040754;28;20266;-78
2021/12/13 08:30:24;;;;;;;17.30;14.90;;;;;;;;;;5038004;28;20212;-77
2021/12/13 08:32:57;;;;;;;19.90;15.57;;;;;;;;;;5044717;28;20213;-78
2021/12/13 08:35:25;;;;;;;19.70;15.70;;;;;;;;;;5038957;28;20205;-77
2021/12/13 08:37:55;;;;;;;19.57;14.77;;;;;;;;;;5038768;28;20233;-77
2021/12/13 08:40:25;;;;;;;17.47;15.63;;;;;;;;;;5039219;28;20245;-77
2021/12/13 08:42:55;;;;;;;18.33;16.30;;;;;;;;;;5038140;28;20220;-77
2021/12/13 08:45:27;;;;;;;18.83;15.63;;;;;;;;;;5039074;28;20216;-77
2021/12/13 08:47:57;;;;;;;19.33;15.57;;;;;;;;;;5036743;28;20222;-77
2021/12/13 08:50:31;;;;;;;16.13;13.63;;;;;;;;;;5039497;28;20232;-77
2021/12/13 08:53:00;;;;;;;19.73;15.43;;;;;;;;;;5038422;28;20584;-77
2021/12/13 08:55:30;;;;;;;18.10;15.27;;;;;;;;;;5037930;28;20274;-77
2021/12/13 08:58:11;;;;;;;19.87;15.40;;;;;;;;;;5038254;28;20213;-77
2021/12/13 09:00:46;;;;;;;16.57;13.73;;;;;;;;;;5037003;28;20240;-77
2021/12/13 09:03:34;;;;;;;20.67;16.43;;;;;;;;;;5037994;28;20353;-77
2021/12/13 09:06:11;;;;;;;19.17;15.87;;;;;;;;;;5035840;28;20204;-77
2021/12/13 09:08:42;;;;;;;19.83;16.10;;;;;;;;;;5037348;28;20268;-77
2021/12/13 09:11:25;;;;;;;18.63;15.97;;;;;;;;;;5036378;28;20225;-77
2021/12/13 09:13:57;;;;;;;19.40;16.63;;;;;;;;;;5037095;28;20343;-77
2021/12/13 09:16:39;;;;;;;19.27;15.60;;;;;;;;;;5039135;28;20328;-78
2021/12/13 09:19:13;;;;;;;20.50;16.67;;;;;;;;;;5037780;28;20264;-78
2021/12/13 09:21:54;;;;;;;18.57;16.00;;;;;;;;;;5038898;28;20274;-77
2021/12/13 09:24:33;;;;;;;19.00;15.17;;;;;;;;;;5037827;28;20205;-77
2021/12/13 09:27:15;;;;;;;20.27;15.30;;;;;;;;;;5039143;28;20262;-77
2021/12/13 09:29:51;;;;;;;18.00;14.33;;;;;;;;;;5039564;28;20524;-78
2021/12/13 09:32:19;;;;;;;18.63;15.20;;;;;;;;;;5037340;28;20510;-77
2021/12/13 09:34:45;;;;;;;21.97;16.60;;;;;;;;;;5039072;28;20216;-77
2021/12/13 09:37:14;;;;;;;23.23;16.27;;;;;;;;;;5035826;28;20591;-77
2021/12/13 09:39:41;;;;;;;19.03;14.73;;;;;;;;;;5037047;28;20244;-77
2021/12/13 09:42:12;;;;;;;17.10;15.30;;;;;;;;;;5038263;28;20208;-78
2021/12/13 09:44:48;;;;;;;21.00;14.60;;;;;;;;;;5037068;28;20240;-75
2021/12/13 09:47:19;;;;;;;21.67;16.50;;;;;;;;;;5038636;28;20233;-76
2021/12/13 09:49:49;;;;;;;20.23;15.57;;;;;;;;;;5036522;28;20279;-75
2021/12/13 09:52:25;;;;;;;23.33;15.63;;;;;;;;;;5038681;28;20216;-75
2021/12/13 09:54:55;;;;;;;22.13;16.90;;;;;;;;;;5035545;28;20350;-75
2021/12/13 09:57:25;;;;;;;20.77;16.60;;;;;;;;;;5037390;28;20210;-75
2021/12/13 09:59:53;;;;;;;20.77;16.40;;;;;;;;;;5038083;28;20254;-75
2021/12/13 10:02:25;;;;;;;24.17;16.67;;;;;;;;;;5036897;28;20482;-75
2021/12/13 10:04:52;;;;;;;21.33;16.10;;;;;;;;;;5039172;28;20213;-77
2021/12/13 10:07:25;;;;;;;20.90;15.90;;;;;;;;;;5036582;28;20663;-76
2021/12/13 10:09:55;;;;;;;19.87;15.43;;;;;;;;;;5038679;28;20233;-76
2021/12/13 10:12:28;;;;;;;21.93;16.87;;;;;;;;;;5036762;28;20217;-76
2021/12/13 10:15:00;;;;;;;18.87;15.67;;;;;;;;;;5037690;28;20723;-76
2021/12/13 10:17:33;;;;;;;21.87;16.97;;;;;;;;;;5037651;28;20708;-76
2021/12/13 10:20:05;;;;;;;22.43;17.53;;;;;;;;;;5037344;28;20232;-76
2021/12/13 10:22:34;;;;;;;18.73;15.30;;;;;;;;;;5038534;28;20229;-76
2021/12/13 10:25:08;;;;;;;23.40;17.03;;;;;;;;;;5037059;28;20225;-77
2021/12/13 10:27:34;;;;;;;20.13;14.80;;;;;;;;;;5039281;28;20252;-76
2021/12/13 10:30:06;;;;;;;22.87;16.50;;;;;;;;;;5037234;28;20282;-76
2021/12/13 10:32:36;;;;;;;22.50;16.70;;;;;;;;;;5039435;28;20290;-76
2021/12/13 10:35:07;;;;;;;21.30;16.87;;;;;;;;;;5037276;28;21040;-76
2021/12/13 10:37:38;;;;;;;20.30;15.53;;;;;;;;;;5038422;28;20793;-76
2021/12/13 10:40:10;;;;;;;21.83;15.83;;;;;;;;;;5036129;28;20274;-76
2021/12/13 10:42:43;;;;;;;21.80;16.50;;;;;;;;;;5037040;28;20213;-76
2021/12/13 10:45:13;;;;;;;19.90;15.27;;;;;;;;;;5038050;28;20205;-76
2021/12/13 10:47:43;;;;;;;36.43;15.73;;;;;;;;;;5036477;28;20229;-76
2021/12/13 10:50:16;;;;;;;19.43;15.80;;;;;;;;;;5037363;28;20744;-76
2021/12/13 10:52:48;;;;;;;19.63;15.63;;;;;;;;;;5035667;28;20211;-76
2021/12/13 10:55:20;;;;;;;18.97;14.63;;;;;;;;;;5037708;28;20234;-76
2021/12/13 10:57:49;;;;;;;21.40;15.57;;;;;;;;;;5038740;28;20215;-76
2021/12/13 11:00:21;;;;;;;21.20;15.30;;;;;;;;;;5034967;28;20231;-76
2021/12/13 11:02:54;;;;;;;18.40;13.63;;;;;;;;;;5038509;28;20309;-76
2021/12/13 11:05:24;;;;;;;22.60;15.77;;;;;;;;;;5036692;28;20270;-76
2021/12/13 11:07:52;;;;;;;20.23;15.70;;;;;;;;;;5040662;28;20213;-76
2021/12/13 11:10:23;;;;;;;20.20;14.90;;;;;;;;;;5040151;28;20755;-77
2021/12/13 11:12:53;;;;;;;21.17;15.50;;;;;;;;;;5039273;28;20220;-76
2021/12/13 11:15:26;;;;;;;19.00;16.10;;;;;;;;;;5041502;28;20221;-76
2021/12/13 11:17:54;;;;;;;21.03;15.90;;;;;;;;;;5040311;28;20232;-76
2021/12/13 11:20:27;;;;;;;22.67;15.20;;;;;;;;;;5039339;28;20243;-76
2021/12/13 11:22:56;;;;;;;21.67;14.63;;;;;;;;;;5040784;28;20282;-76
2021/12/13 11:25:26;;;;;;;18.63;15.23;;;;;;;;;;5038935;28;20235;-76
2021/12/13 11:27:53;;;;;;;19.07;15.67;;;;;;;;;;5041391;28;20289;-76
2021/12/13 11:30:22;;;;;;;20.57;14.70;;;;;;;;;;5036566;28;20292;-75
2021/12/13 11:33:51;;;;;;;19.70;15.40;;;;;;;;;;5038787;28;20233;-75
2021/12/13 11:36:48;;;;;;;21.20;14.80;;;;;;;;;;5039369;28;20224;-75
2021/12/13 11:39:31;;;;;;;20.20;16.20;;;;;;;;;;5038730;28;20261;-75
2021/12/13 11:42:32;;;;;;;18.30;15.03;;;;;;;;;;5036817;28;20218;-75
2021/12/13 11:45:51;;;;;;;17.60;13.67;;;;;;;;;;5040352;28;20734;-75
2021/12/13 11:48:41;;;;;;;19.90;15.13;;;;;;;;;;5017781;28;20288;-75
2021/12/13 11:51:35;;;;;;;19.33;14.30;;;;;;;;;;5016300;28;20255;-75
2021/12/13 11:54:33;;;;;;;16.77;12.90;;;;;;;;;;5033670;28;21317;-76
2021/12/13 11:57:27;;;;;;;18.47;13.67;;;;;;;;;;5041966;28;20221;-75
2021/12/13 12:00:14;;;;;;;18.13;14.23;;;;;;;;;;5040844;28;20225;-75
2021/12/13 12:03:08;;;;;;;17.93;14.07;;;;;;;;;;5038331;28;20229;-75
2021/12/13 12:06:12;;;;;;;17.63;13.70;;;;;;;;;;5039439;28;20232;-75
2021/12/13 12:09:10;;;;;;;17.37;13.43;;;;;;;;;;5040847;28;20243;-75
2021/12/13 12:11:59;;;;;;;16.43;13.73;;;;;;;;;;5038515;28;20271;-75
2021/12/13 12:14:28;;;;;;;18.17;12.63;;;;;;;;;;5037443;28;20623;-75
2021/12/13 12:16:58;;;;;;;18.07;14.37;;;;;;;;;;5039724;28;20248;-75
2021/12/13 12:19:27;;;;;;;16.47;13.37;;;;;;;;;;5037890;28;21037;-75
2021/12/13 12:21:57;;;;;;;17.70;12.90;;;;;;;;;;5039106;28;20258;-75
2021/12/13 12:24:25;;;;;;;19.33;14.47;;;;;;;;;;5037500;28;20290;-75
2021/12/13 12:26:57;;;;;;;19.10;14.53;;;;;;;;;;5038145;28;20217;-74
2021/12/13 12:29:28;;;;;;;16.87;14.13;;;;;;;;;;5039813;28;20224;-75
2021/12/13 12:32:01;;;;;;;18.00;13.87;;;;;;;;;;5037709;28;20709;-75
2021/12/13 12:34:28;;;;;;;18.37;13.83;;;;;;;;;;5040051;28;20238;-73
2021/12/13 12:37:57;;;;;;;17.07;13.13;;;;;;;;;;5038441;28;20252;-75
2021/12/13 12:40:28;;;;;;;17.27;13.53;;;;;;;;;;5037398;28;20315;-76
2021/12/13 12:42:58;;;;;;;19.00;13.73;;;;;;;;;;5039140;28;20203;-75
2021/12/13 12:45:31;;;;;;;17.70;13.43;;;;;;;;;;5036631;28;20328;-76
2021/12/13 12:48:28;;;;;;;16.63;13.10;;;;;;;;;;5040139;28;20251;-75
2021/12/13 12:50:59;;;;;;;15.30;12.33;;;;;;;;;;5038922;28;20216;-75
2021/12/13 12:53:46;;;;;;;16.23;13.30;;;;;;;;;;5037260;28;20255;-75
2021/12/13 12:56:17;;;;;;;15.67;12.80;;;;;;;;;;5040740;28;20278;-75
2021/12/13 12:58:55;;;;;;;16.90;13.77;;;;;;;;;;5041073;28;20281;-75
2021/12/13 13:01:25;;;;;;;19.33;13.30;;;;;;;;;;5040502;28;20225;-75
2021/12/13 13:03:53;;;;;;;16.03;13.23;;;;;;;;;;5040606;28;20243;-76
2021/12/13 13:06:23;;;;;;;17.83;13.10;;;;;;;;;;5040945;28;20225;-75
2021/12/13 13:08:52;;;;;;;15.30;12.60;;;;;;;;;;5038716;28;20207;-75
2021/12/13 13:11:29;;;;;;;17.17;12.83;;;;;;;;;;5037202;28;20298;-75
2021/12/13 13:14:10;;;;;;;20.60;15.20;;;;;;;;;;5039168;28;20304;-76
2021/12/13 13:16:42;;;;;;;16.97;14.23;;;;;;;;;;5037043;28;20236;-75
2021/12/13 13:19:11;;;;;;;17.63;13.23;;;;;;;;;;5037998;28;20275;-75
2021/12/13 13:21:46;;;;;;;15.33;12.40;;;;;;;;;;5038162;28;20240;-75
2021/12/13 13:24:13;;;;;;;16.67;12.80;;;;;;;;;;5039065;28;20341;-75
2021/12/13 13:26:43;;;;;;;13.00;11.63;;;;;;;;;;5039318;28;20260;-75
2021/12/13 13:29:15;;;;;;;15.30;11.90;;;;;;;;;;5035026;28;20370;-75
2021/12/13 13:31:48;;;;;;;17.03;12.20;;;;;;;;;;5037563;28;20810;-75
2021/12/13 13:34:16;;;;;;;17.00;11.67;;;;;;;;;;5037680;28;20857;-75
2021/12/13 13:36:47;;;;;;;13.67;11.17;;;;;;;;;;5038220;28;20703;-76
2021/12/13 13:39:21;;;;;;;13.77;11.73;;;;;;;;;;5037159;28;20245;-75
2021/12/13 13:41:51;;;;;;;16.17;11.63;;;;;;;;;;5037422;28;20233;-75
2021/12/13 13:44:22;;;;;;;14.80;10.97;;;;;;;;;;5038619;28;20518;-75
2021/12/13 13:46:49;;;;;;;13.17;10.30;;;;;;;;;;5036332;28;20281;-75
2021/12/13 13:49:18;;;;;;;19.77;11.27;;;;;;;;;;5037918;28;20237;-75
2021/12/13 13:51:46;;;;;;;16.53;10.67;;;;;;;;;;5037355;28;20740;-75
2021/12/13 13:54:12;;;;;;;15.87;10.70;;;;;;;;;;5036756;28;20949;-75
2021/12/13 13:56:41;;;;;;;13.07;10.57;;;;;;;;;;5037335;28;20236;-75
2021/12/13 13:59:10;;;;;;;17.97;11.23;;;;;;;;;;5038101;28;20212;-75
2021/12/13 14:01:42;;;;;;;14.27;11.40;;;;;;;;;;5037291;28;20340;-75
2021/12/13 14:04:18;;;;;;;13.50;10.23;;;;;;;;;;5036531;28;20973;-76
2021/12/13 14:06:49;;;;;;;15.63;11.40;;;;;;;;;;5038191;28;20205;-76
2021/12/13 14:09:18;;;;;;;15.87;11.60;;;;;;;;;;5036079;28;20787;-75
2021/12/13 14:11:47;;;;;;;20.60;12.07;;;;;;;;;;5037903;28;20225;-76
2021/12/13 14:14:13;;;;;;;16.83;10.83;;;;;;;;;;5035709;28;20220;-75
2021/12/13 14:16:47;;;;;;;13.70;11.57;;;;;;;;;;5037622;28;20235;-77
2021/12/13 14:19:16;;;;;;;16.17;11.50;;;;;;;;;;5035934;28;20592;-77
2021/12/13 14:21:46;;;;;;;12.90;10.03;;;;;;;;;;5037306;28;20804;-75
2021/12/13 14:24:29;;;;;;;12.63;10.50;;;;;;;;;;5036320;28;20707;-76
2021/12/13 14:27:12;;;;;;;15.07;11.07;;;;;;;;;;5036863;28;20551;-75
2021/12/13 14:29:39;;;;;;;13.87;11.53;;;;;;;;;;5036788;28;20232;-75
2021/12/13 14:32:10;;;;;;;18.43;11.93;;;;;;;;;;5036207;28;20237;-75
2021/12/13 14:34:39;;;;;;;13.57;10.67;;;;;;;;;;5038750;28;20209;-77
2021/12/13 14:37:08;;;;;;;16.07;11.33;;;;;;;;;;5035782;28;20627;-75
2021/12/13 14:39:37;;;;;;;12.10;10.13;;;;;;;;;;5037773;28;20251;-77
2021/12/13 14:42:07;;;;;;;13.17;10.40;;;;;;;;;;5039702;28;21184;-75
2021/12/13 14:44:37;;;;;;;14.03;11.03;;;;;;;;;;5040881;28;20240;-75
2021/12/13 14:47:09;;;;;;;16.17;10.93;;;;;;;;;;5042237;28;20230;-76
2021/12/13 14:49:43;;;;;;;12.17;9.57;;;;;;;;;;5040045;28;20765;-76
2021/12/13 14:52:18;;;;;;;13.10;10.00;;;;;;;;;;5041241;28;20267;-77
2021/12/13 14:54:48;;;;;;;13.87;9.73;;;;;;;;;;5039716;28;20754;-77
2021/12/13 14:57:19;;;;;;;17.63;11.27;;;;;;;;;;5042439;28;20279;-77
2021/12/13 14:59:49;;;;;;;13.13;9.27;;;;;;;;;;5039074;28;20523;-77